createdAt,value
2022-07-27T00:01:21.519Z,1.13
2022-07-27T00:03:49.603Z,1.50
2022-07-27T00:06:17.603Z,1.30
2022-07-27T00:08:45.617Z,1.23
2022-07-27T00:11:15.040Z,1.17
2022-07-27T00:13:45.124Z,1.00
2022-07-27T00:16:13.169Z,1.20
2022-07-27T00:18:41.157Z,1.40
2022-07-27T00:21:09.135Z,1.37
2022-07-27T00:23:37.037Z,1.40
2022-07-27T00:26:04.954Z,1.20
2022-07-27T00:28:34.525Z,1.30
2022-07-27T00:31:02.453Z,1.30
2022-07-27T00:33:30.790Z,1.20
2022-07-27T00:35:59.011Z,1.17
2022-07-27T00:38:27.018Z,1.30
2022-07-27T00:40:55.135Z,1.20
2022-07-27T00:43:23.118Z,1.40
2022-07-27T00:45:52.436Z,1.30
2022-07-27T00:48:20.388Z,1.30
2022-07-27T00:50:48.518Z,1.30
2022-07-27T00:53:16.855Z,1.10
2022-07-27T00:55:44.832Z,1.27
2022-07-27T00:58:13.242Z,1.20
2022-07-27T01:00:41.237Z,1.43
2022-07-27T01:03:10.670Z,1.27
2022-07-27T01:05:43.059Z,1.23
2022-07-27T01:08:12.522Z,1.40
2022-07-27T01:10:40.631Z,1.30
2022-07-27T01:13:12.725Z,1.23
2022-07-27T01:15:41.385Z,1.40
2022-07-27T01:18:13.305Z,1.67
2022-07-27T01:20:41.798Z,1.60
2022-07-27T01:23:11.325Z,1.50
2022-07-27T01:25:42.415Z,1.60
2022-07-27T01:28:10.367Z,1.80
2022-07-27T01:30:38.384Z,1.37
2022-07-27T01:33:07.084Z,1.50
2022-07-27T01:35:35.065Z,1.50
2022-07-27T01:38:03.012Z,1.67
2022-07-27T01:40:32.320Z,1.47
2022-07-27T01:43:00.235Z,1.60
2022-07-27T01:45:28.398Z,1.40
2022-07-27T01:47:56.347Z,1.60
2022-07-27T01:50:24.301Z,1.67
2022-07-27T01:52:52.213Z,1.80
2022-07-27T01:55:20.221Z,1.70
2022-07-27T01:57:49.587Z,1.70
2022-07-27T02:00:17.857Z,1.60
2022-07-27T02:02:45.784Z,1.70
2022-07-27T02:05:13.906Z,1.80
2022-07-27T02:07:42.013Z,1.57
2022-07-27T02:10:10.698Z,1.60
2022-07-27T02:12:37.906Z,1.50
2022-07-27T02:15:09.050Z,1.60
2022-07-27T02:17:43.261Z,1.70
2022-07-27T02:20:12.028Z,1.97
2022-07-27T02:22:39.959Z,1.90
2022-07-27T02:25:09.155Z,1.60
2022-07-27T02:27:37.041Z,1.80
2022-07-27T02:30:05.526Z,1.73
2022-07-27T02:32:34.916Z,1.60
2022-07-27T02:35:18.276Z,1.60
2022-07-27T02:37:48.014Z,1.50
2022-07-27T02:40:17.277Z,1.87
2022-07-27T02:42:45.695Z,1.93
2022-07-27T02:45:13.677Z,1.90
2022-07-27T02:47:43.206Z,1.83
2022-07-27T02:50:11.380Z,1.77
2022-07-27T02:52:39.397Z,1.80
2022-07-27T02:55:07.983Z,1.90
2022-07-27T02:57:37.976Z,1.73
2022-07-27T03:00:06.940Z,1.50
2022-07-27T03:02:34.904Z,1.60
2022-07-27T03:05:04.773Z,1.73
2022-07-27T03:07:32.706Z,1.70
2022-07-27T03:10:00.693Z,1.80
2022-07-27T03:12:28.626Z,1.53
2022-07-27T03:14:57.481Z,1.53
2022-07-27T03:17:25.403Z,1.70
2022-07-27T03:19:53.348Z,1.60
2022-07-27T03:22:22.695Z,1.70
2022-07-27T03:24:50.698Z,1.70
2022-07-27T03:27:18.622Z,1.37
2022-07-27T03:29:46.562Z,1.70
2022-07-27T03:32:14.525Z,1.70
2022-07-27T03:34:42.489Z,1.77
2022-07-27T03:37:10.479Z,2.00
2022-07-27T03:39:39.824Z,1.80
2022-07-27T03:42:07.934Z,1.80
2022-07-27T03:44:35.906Z,1.80
2022-07-27T03:47:03.906Z,1.80
2022-07-27T03:49:32.119Z,1.70
2022-07-27T03:52:00.158Z,1.87
2022-07-27T03:54:28.218Z,1.63
2022-07-27T03:56:57.486Z,1.80
2022-07-27T03:59:27.485Z,1.90
2022-07-27T04:01:56.111Z,1.90
2022-07-27T04:04:24.160Z,1.97
2022-07-27T04:06:52.121Z,1.70
2022-07-27T04:09:20.504Z,1.87
2022-07-27T04:11:50.703Z,1.80
2022-07-27T04:14:20.952Z,2.00
2022-07-27T04:16:48.902Z,2.20
2022-07-27T04:19:16.870Z,2.00
2022-07-27T04:21:44.877Z,1.77
2022-07-27T04:24:12.787Z,2.03
2022-07-27T04:26:40.696Z,1.57
2022-07-27T04:29:08.788Z,1.80
2022-07-27T04:31:38.232Z,1.70
2022-07-27T04:34:06.203Z,1.90
2022-07-27T04:36:34.157Z,1.97
2022-07-27T04:39:02.105Z,1.87
2022-07-27T04:41:31.264Z,1.80
2022-07-27T04:44:00.191Z,1.63
2022-07-27T04:46:29.648Z,1.90
2022-07-27T04:48:59.384Z,1.90
2022-07-27T04:51:31.174Z,1.70
2022-07-27T04:54:02.102Z,1.73
2022-07-27T04:56:30.155Z,2.10
2022-07-27T04:58:58.121Z,1.83
2022-07-27T05:01:30.334Z,1.73
2022-07-27T05:04:04.130Z,1.93
2022-07-27T05:06:32.977Z,1.70
2022-07-27T05:09:00.991Z,1.80
2022-07-27T05:11:28.911Z,1.90
2022-07-27T05:13:56.910Z,1.80
2022-07-27T05:16:28.448Z,1.90
2022-07-27T05:18:57.284Z,1.93
2022-07-27T05:21:27.343Z,2.00
2022-07-27T05:23:55.785Z,1.97
2022-07-27T05:26:23.794Z,1.73
2022-07-27T05:28:51.913Z,2.00
2022-07-27T05:31:19.866Z,1.60
2022-07-27T05:33:49.783Z,2.07
2022-07-27T05:36:18.570Z,2.17
2022-07-27T05:38:50.412Z,1.93
2022-07-27T05:41:23.571Z,1.97
2022-07-27T05:43:51.575Z,1.67
2022-07-27T05:46:19.538Z,1.80
2022-07-27T05:48:47.733Z,2.30
2022-07-27T05:51:15.782Z,1.77
2022-07-27T05:53:47.932Z,2.10
2022-07-27T05:56:16.306Z,1.73
2022-07-27T05:58:44.254Z,1.97
2022-07-27T06:01:12.297Z,1.83
2022-07-27T06:03:40.377Z,2.10
2022-07-27T06:06:25.909Z,1.83
2022-07-27T06:08:58.740Z,2.20
2022-07-27T06:11:26.685Z,1.93
2022-07-27T06:13:58.451Z,2.30
2022-07-27T06:16:26.656Z,2.03
2022-07-27T06:18:54.663Z,2.23
2022-07-27T06:21:24.280Z,2.00
2022-07-27T06:23:52.229Z,2.13
2022-07-27T06:26:21.581Z,2.13
2022-07-27T06:28:49.502Z,2.37
2022-07-27T06:31:17.548Z,2.27
2022-07-27T06:33:46.171Z,2.87
2022-07-27T06:36:19.068Z,2.00
2022-07-27T06:38:47.042Z,2.10
2022-07-27T06:41:23.998Z,2.10
2022-07-27T06:43:53.329Z,2.27
2022-07-27T06:46:21.284Z,2.33
2022-07-27T06:48:49.404Z,2.27
2022-07-27T06:51:17.462Z,2.30
2022-07-27T06:53:45.760Z,2.03
2022-07-27T06:56:14.088Z,2.13
2022-07-27T06:58:42.177Z,2.20
2022-07-27T07:01:11.533Z,2.10
2022-07-27T07:03:39.561Z,2.17
2022-07-27T07:06:07.586Z,2.53
2022-07-27T07:08:35.695Z,3.67
2022-07-27T07:11:03.995Z,2.20
2022-07-27T07:13:36.749Z,2.70
2022-07-27T07:16:06.720Z,2.13
2022-07-27T07:18:36.082Z,2.20
2022-07-27T07:21:04.062Z,2.20
2022-07-27T07:23:31.972Z,2.30
2022-07-27T07:26:00.065Z,2.10
2022-07-27T07:28:29.609Z,2.20
2022-07-27T07:30:57.723Z,2.73
2022-07-27T07:33:26.912Z,2.40
2022-07-27T07:36:12.086Z,2.43
2022-07-27T07:38:42.950Z,2.20
2022-07-27T07:41:10.889Z,2.20
2022-07-27T07:43:39.792Z,2.40
2022-07-27T07:46:08.693Z,2.03
2022-07-27T07:48:36.753Z,2.33
2022-07-27T07:51:06.142Z,2.90
2022-07-27T07:53:39.177Z,2.20
2022-07-27T07:56:09.523Z,2.50
2022-07-27T07:58:37.947Z,2.30
2022-07-27T08:01:05.879Z,2.60
2022-07-27T08:03:34.172Z,2.70
2022-07-27T08:06:02.281Z,2.90
2022-07-27T08:08:33.106Z,2.47
2022-07-27T08:11:01.021Z,2.03
2022-07-27T08:13:28.959Z,2.10
2022-07-27T08:15:57.042Z,2.17
2022-07-27T08:18:25.064Z,1.90
2022-07-27T08:20:52.938Z,1.80
2022-07-27T08:23:20.906Z,2.50
2022-07-27T08:25:50.325Z,1.80
2022-07-27T08:28:18.326Z,2.30
2022-07-27T08:30:46.614Z,2.13
2022-07-27T08:33:14.592Z,1.80
2022-07-27T08:35:42.623Z,1.87
2022-07-27T08:38:10.877Z,2.23
2022-07-27T08:40:41.953Z,2.20
2022-07-27T08:43:18.917Z,2.07
2022-07-27T08:45:54.742Z,1.90
2022-07-27T08:48:22.915Z,2.20
2022-07-27T08:50:50.945Z,2.50
2022-07-27T08:53:19.144Z,2.33
2022-07-27T08:55:48.081Z,2.23
2022-07-27T08:58:17.563Z,2.30
2022-07-27T09:00:46.467Z,2.60
2022-07-27T09:03:19.086Z,2.23
2022-07-27T09:05:49.457Z,2.63
2022-07-27T09:08:18.354Z,2.80
2022-07-27T09:10:46.554Z,2.80
2022-07-27T09:13:23.431Z,2.67
2022-07-27T09:18:40.297Z,2.70
2022-07-27T09:21:16.060Z,2.90
2022-07-27T09:23:44.723Z,2.47
2022-07-27T09:26:29.851Z,2.73
2022-07-27T09:29:01.080Z,2.93
2022-07-27T09:31:29.224Z,2.80
2022-07-27T09:33:58.087Z,2.58
2022-07-27T09:36:28.171Z,2.30
2022-07-27T09:39:01.859Z,3.80
2022-07-27T09:41:40.385Z,2.10
2022-07-27T09:44:31.190Z,2.05
2022-07-27T09:46:57.767Z,2.28
2022-07-27T09:49:29.958Z,2.00
2022-07-27T09:52:00.447Z,2.88
2022-07-27T09:54:29.638Z,2.28
2022-07-27T09:57:01.859Z,2.35
2022-07-27T09:59:31.370Z,2.58
2022-07-27T10:02:00.589Z,1.95
2022-07-27T10:04:28.695Z,2.30
2022-07-27T10:07:08.166Z,2.10
2022-07-27T10:09:39.592Z,3.40
2022-07-27T10:12:08.188Z,2.20
2022-07-27T10:14:37.538Z,1.95
2022-07-27T10:17:06.415Z,2.05
2022-07-27T10:19:37.749Z,1.90
2022-07-27T10:22:05.853Z,2.00
2022-07-27T10:24:36.364Z,2.00
2022-07-27T10:27:19.586Z,1.60
2022-07-27T10:29:49.315Z,1.90
2022-07-27T10:32:24.756Z,1.60
2022-07-27T10:34:52.751Z,1.40
2022-07-27T10:37:26.226Z,1.00
2022-07-27T10:40:15.179Z,1.15
2022-07-27T10:42:43.141Z,1.40
2022-07-27T10:45:13.439Z,1.20
2022-07-27T10:47:43.301Z,1.38
2022-07-27T10:50:38.482Z,1.30
2022-07-27T10:53:11.456Z,1.58
2022-07-27T10:55:49.681Z,1.35
2022-07-27T10:58:48.756Z,1.27
2022-07-27T11:01:18.977Z,1.50
2022-07-27T11:03:57.157Z,1.58
2022-07-27T11:06:41.929Z,1.35
2022-07-27T11:12:04.563Z,1.45
2022-07-27T11:14:32.858Z,1.48
2022-07-27T11:17:32.234Z,1.30
2022-07-27T11:19:54.830Z,1.20
2022-07-27T11:23:03.206Z,1.38
2022-07-27T11:25:21.467Z,1.60
2022-07-27T11:27:49.954Z,1.42
2022-07-27T11:30:25.423Z,1.20
2022-07-27T11:32:54.854Z,1.45
2022-07-27T11:35:23.010Z,1.27
2022-07-27T11:38:01.470Z,1.40
2022-07-27T11:43:33.840Z,1.77
2022-07-27T11:46:13.313Z,1.50
2022-07-27T11:49:05.905Z,1.77
2022-07-27T11:51:37.602Z,1.92
2022-07-27T11:54:06.641Z,2.00
2022-07-27T11:56:35.926Z,1.60
2022-07-27T11:59:11.914Z,1.55
2022-07-27T12:01:41.677Z,1.80
2022-07-27T12:04:13.906Z,1.90
2022-07-27T12:06:42.825Z,2.40
2022-07-27T12:09:13.046Z,2.08
2022-07-27T12:11:56.428Z,2.20
2022-07-27T12:14:37.596Z,1.92
2022-07-27T12:17:27.523Z,2.10
2022-07-27T12:20:03.153Z,2.25
2022-07-27T12:22:33.136Z,2.55
2022-07-27T12:25:01.911Z,2.40
2022-07-27T12:27:30.580Z,2.13
2022-07-27T12:30:00.117Z,1.90
2022-07-27T12:32:28.317Z,2.05
2022-07-27T12:34:57.646Z,2.30
2022-07-27T12:37:30.463Z,2.00
2022-07-27T12:39:58.487Z,1.85
2022-07-27T12:42:34.465Z,1.92
2022-07-27T12:45:12.665Z,1.58
2022-07-27T12:47:43.200Z,1.88
2022-07-27T12:50:14.248Z,1.70
2022-07-27T12:52:45.301Z,1.75
2022-07-27T12:55:15.829Z,2.00
2022-07-27T12:57:55.778Z,1.42
2022-07-27T13:00:29.365Z,1.50
2022-07-27T13:03:01.162Z,1.67
2022-07-27T13:05:30.576Z,1.70
2022-07-27T13:07:59.087Z,1.70
2022-07-27T13:10:27.977Z,1.50
2022-07-27T13:12:56.036Z,1.80
2022-07-27T13:15:24.005Z,1.80
2022-07-27T13:17:51.995Z,1.75
2022-07-27T13:20:20.021Z,1.83
2022-07-27T13:22:49.433Z,2.00
2022-07-27T13:25:17.975Z,1.70
2022-07-27T13:27:46.088Z,1.60
2022-07-27T13:30:15.866Z,1.70
2022-07-27T13:32:44.281Z,1.70
2022-07-27T13:35:16.735Z,1.95
2022-07-27T13:37:45.014Z,1.70
2022-07-27T13:40:14.944Z,1.70
2022-07-27T13:42:42.914Z,1.65
2022-07-27T13:45:12.231Z,1.90
2022-07-27T13:47:40.687Z,1.75
2022-07-27T13:50:17.030Z,1.50
2022-07-27T13:52:46.614Z,2.25
2022-07-27T13:55:16.128Z,1.55
2022-07-27T13:57:44.165Z,1.70
2022-07-27T14:00:13.296Z,2.35
2022-07-27T14:02:41.976Z,1.80
2022-07-27T14:05:13.046Z,2.25
2022-07-27T14:07:42.224Z,1.85
2022-07-27T14:10:30.146Z,1.95
2022-07-27T14:13:07.417Z,2.00
2022-07-27T14:15:52.647Z,1.70
2022-07-27T14:18:24.537Z,2.20
2022-07-27T14:20:52.496Z,1.80
2022-07-27T14:23:20.994Z,1.80
2022-07-27T14:25:49.021Z,1.90
2022-07-27T14:28:18.325Z,1.88
2022-07-27T14:30:46.579Z,2.00
2022-07-27T14:33:14.521Z,1.88
2022-07-27T14:35:42.495Z,1.70
2022-07-27T14:38:10.420Z,1.98
2022-07-27T14:40:40.560Z,2.10
2022-07-27T14:43:08.564Z,2.25
2022-07-27T14:45:45.125Z,2.05
2022-07-27T14:48:20.387Z,2.00
2022-07-27T14:50:50.994Z,2.10
2022-07-27T14:53:18.981Z,2.80
2022-07-27T14:55:46.972Z,2.10
2022-07-27T14:58:15.042Z,2.30
2022-07-27T15:00:44.810Z,2.35
2022-07-27T15:03:14.551Z,2.53
2022-07-27T15:05:50.349Z,2.40
2022-07-27T15:08:20.061Z,2.40
2022-07-27T15:10:48.527Z,2.40
2022-07-27T15:13:16.606Z,2.30
2022-07-27T15:15:48.389Z,2.20
2022-07-27T15:18:18.790Z,2.17
2022-07-27T15:20:46.896Z,2.58
2022-07-27T15:23:14.832Z,2.50
2022-07-27T15:25:42.845Z,2.13
2022-07-27T15:28:10.844Z,2.05
2022-07-27T15:30:39.115Z,2.03
2022-07-27T15:33:08.604Z,1.75
2022-07-27T15:35:36.569Z,2.08
2022-07-27T15:38:04.865Z,1.60
2022-07-27T15:40:38.811Z,2.05
2022-07-27T15:43:07.485Z,1.77
2022-07-27T15:45:38.714Z,2.13
2022-07-27T15:48:09.552Z,1.80
2022-07-27T15:50:37.998Z,1.88
2022-07-27T15:53:06.118Z,1.70
2022-07-27T15:55:35.331Z,1.70
2022-07-27T15:58:03.417Z,1.92
2022-07-27T16:00:35.575Z,1.77
2022-07-27T16:03:08.207Z,1.92
2022-07-27T16:05:36.190Z,2.00
2022-07-27T16:08:04.888Z,1.80
2022-07-27T16:10:32.851Z,1.90
2022-07-27T16:13:01.838Z,1.70
2022-07-27T16:15:43.966Z,2.00
2022-07-27T16:18:13.349Z,2.25
2022-07-27T16:20:41.295Z,2.25
2022-07-27T16:23:18.531Z,2.40
2022-07-27T16:26:07.586Z,2.30
2022-07-27T16:28:37.173Z,2.33
2022-07-27T16:31:05.630Z,2.40
2022-07-27T16:33:34.989Z,2.88
2022-07-27T16:36:03.013Z,2.50
2022-07-27T16:38:30.909Z,2.55
2022-07-27T16:40:58.871Z,2.63
2022-07-27T16:43:37.961Z,2.95
2022-07-27T16:46:07.860Z,3.17
2022-07-27T16:48:42.295Z,3.25
2022-07-27T16:51:12.080Z,2.90
2022-07-27T16:53:40.384Z,3.05
2022-07-27T16:56:09.091Z,2.90
2022-07-27T16:58:37.124Z,2.63
2022-07-27T17:01:05.277Z,2.95
2022-07-27T17:03:33.253Z,3.28
2022-07-27T17:06:06.512Z,2.92
2022-07-27T17:08:35.667Z,2.70
2022-07-27T17:11:06.069Z,2.63
2022-07-27T17:13:34.918Z,2.92
2022-07-27T17:16:03.445Z,2.75
2022-07-27T17:18:37.139Z,2.60
2022-07-27T17:21:09.527Z,3.30
2022-07-27T17:23:38.943Z,2.03
2022-07-27T17:26:07.958Z,2.17
2022-07-27T17:28:38.816Z,2.38
2022-07-27T17:31:07.059Z,2.25
2022-07-27T17:33:35.398Z,2.15
2022-07-27T17:36:03.588Z,1.50
2022-07-27T17:38:33.390Z,1.58
2022-07-27T17:41:01.401Z,1.55
2022-07-27T17:43:29.434Z,1.35
2022-07-27T17:45:57.391Z,1.40
2022-07-27T17:48:25.349Z,1.70
2022-07-27T17:50:53.299Z,1.58
2022-07-27T17:53:21.232Z,1.52
2022-07-27T17:55:50.567Z,1.40
2022-07-27T17:58:18.718Z,1.70
2022-07-27T18:00:46.778Z,1.50
2022-07-27T18:03:15.501Z,1.50
2022-07-27T18:05:44.070Z,1.85
2022-07-27T18:08:12.032Z,1.85
2022-07-27T18:10:40.001Z,2.10
2022-07-27T18:13:09.391Z,2.00
2022-07-27T18:15:51.736Z,1.70
2022-07-27T18:18:24.084Z,1.80
2022-07-27T18:20:52.879Z,1.30
2022-07-27T18:23:20.922Z,1.30
2022-07-27T18:25:48.907Z,1.70
2022-07-27T18:28:18.980Z,1.65
2022-07-27T18:30:47.242Z,1.70
2022-07-27T18:33:15.802Z,1.40
2022-07-27T18:35:44.177Z,1.50
2022-07-27T18:38:12.307Z,1.20
2022-07-27T18:40:42.034Z,1.40
2022-07-27T18:43:10.689Z,1.20
2022-07-27T18:45:40.277Z,1.40
2022-07-27T18:48:09.810Z,1.50
2022-07-27T18:50:39.687Z,1.52
2022-07-27T18:53:08.120Z,1.27
2022-07-27T18:55:36.036Z,1.40
2022-07-27T18:58:03.966Z,1.20
2022-07-27T19:00:32.142Z,1.40
2022-07-27T19:03:01.652Z,1.00
2022-07-27T19:05:40.722Z,1.53
2022-07-27T19:08:12.923Z,1.40
2022-07-27T19:10:41.595Z,1.30
2022-07-27T19:13:10.455Z,1.30
2022-07-27T19:15:38.560Z,1.50
2022-07-27T19:18:08.050Z,1.20
2022-07-27T19:20:37.585Z,1.60
2022-07-27T19:23:06.235Z,1.50
2022-07-27T19:25:34.752Z,1.33
2022-07-27T19:28:02.846Z,1.33
2022-07-27T19:30:30.889Z,1.20
2022-07-27T19:32:58.996Z,1.40
2022-07-27T19:35:28.418Z,1.40
2022-07-27T19:37:56.342Z,1.60
2022-07-27T19:43:12.224Z,1.40
2022-07-27T19:45:40.541Z,1.63
2022-07-27T19:48:08.670Z,1.43
2022-07-27T19:50:38.102Z,1.40
2022-07-27T19:53:06.182Z,1.40
2022-07-27T19:55:34.574Z,1.30
2022-07-27T19:58:02.566Z,1.30
2022-07-27T20:00:30.828Z,1.63
2022-07-27T20:02:58.815Z,1.67
2022-07-27T20:05:26.910Z,1.70
2022-07-27T20:07:56.244Z,1.40
2022-07-27T20:10:25.310Z,1.60
2022-07-27T20:12:53.594Z,1.93
2022-07-27T20:15:22.485Z,1.50
2022-07-27T20:17:50.828Z,1.83
2022-07-27T20:20:19.014Z,1.97
2022-07-27T20:22:46.917Z,1.90
2022-07-27T20:25:16.353Z,1.80
2022-07-27T20:27:44.727Z,1.87
2022-07-27T20:30:14.546Z,2.10
2022-07-27T20:32:42.505Z,1.90
2022-07-27T20:35:10.436Z,1.73
2022-07-27T20:37:38.725Z,1.70
2022-07-27T20:40:09.662Z,1.50
2022-07-27T20:42:40.358Z,1.47
2022-07-27T20:45:11.053Z,1.60
2022-07-27T20:47:39.223Z,1.40
2022-07-27T20:50:08.661Z,1.60
2022-07-27T20:52:36.637Z,1.67
2022-07-27T20:55:04.963Z,1.60
2022-07-27T20:57:32.928Z,1.63
2022-07-27T21:00:02.374Z,1.50
2022-07-27T21:02:30.474Z,1.47
2022-07-27T21:04:58.689Z,1.60
2022-07-27T21:07:27.067Z,1.27
2022-07-27T21:09:55.042Z,1.57
2022-07-27T21:12:23.097Z,1.37
2022-07-27T21:14:51.081Z,1.90
2022-07-27T21:17:20.499Z,1.50
2022-07-27T21:19:48.709Z,1.60
2022-07-27T21:22:16.615Z,1.67
2022-07-27T21:24:45.222Z,1.60
2022-07-27T21:27:15.535Z,1.87
2022-07-27T21:29:49.135Z,1.70
2022-07-27T21:32:17.074Z,2.00
2022-07-27T21:34:46.437Z,1.67
2022-07-27T21:37:14.513Z,1.70
2022-07-27T21:39:42.591Z,1.60
2022-07-27T21:42:10.532Z,1.70
2022-07-27T21:44:38.782Z,2.33
2022-07-27T21:47:13.062Z,1.70
2022-07-27T21:49:41.286Z,1.60
2022-07-27T21:52:11.381Z,1.70
2022-07-27T21:54:39.791Z,1.60
2022-07-27T21:57:07.760Z,1.60
2022-07-27T21:59:35.714Z,1.80
2022-07-27T22:02:03.698Z,1.70
2022-07-27T22:04:31.751Z,1.80
2022-07-27T22:06:59.751Z,1.70
2022-07-27T22:09:29.078Z,1.70
2022-07-27T22:11:57.010Z,1.63
2022-07-27T22:14:24.957Z,1.63
2022-07-27T22:16:53.771Z,1.70
2022-07-27T22:19:24.490Z,1.70
2022-07-27T22:21:52.347Z,1.80
2022-07-27T22:24:20.269Z,1.97
2022-07-27T22:26:50.264Z,1.73
2022-07-27T22:29:18.272Z,1.80
2022-07-27T22:31:46.308Z,1.90
2022-07-27T22:34:14.852Z,1.60
2022-07-27T22:36:43.153Z,1.90
2022-07-27T22:39:11.134Z,1.70
2022-07-27T22:41:39.110Z,1.93
2022-07-27T22:44:08.463Z,2.00
2022-07-27T22:46:36.412Z,2.00
2022-07-27T22:49:04.447Z,1.90
2022-07-27T22:51:50.094Z,1.97
2022-07-27T22:54:20.361Z,2.00
2022-07-27T22:56:48.381Z,2.20
2022-07-27T22:59:17.757Z,2.33
2022-07-27T23:01:47.976Z,2.23
2022-07-27T23:04:17.585Z,2.27
2022-07-27T23:06:46.215Z,2.20
2022-07-27T23:09:15.084Z,2.27
2022-07-27T23:11:43.269Z,2.60
2022-07-27T23:14:11.748Z,2.20
2022-07-27T23:16:41.396Z,2.10
2022-07-27T23:19:09.380Z,2.33
2022-07-27T23:21:37.492Z,2.40
2022-07-27T23:24:05.691Z,2.20
2022-07-27T23:26:33.678Z,2.30
2022-07-27T23:29:02.150Z,2.10
2022-07-27T23:31:30.188Z,2.57
2022-07-27T23:33:59.539Z,2.50
2022-07-27T23:36:27.581Z,2.33
2022-07-27T23:38:55.529Z,2.20
2022-07-27T23:41:23.486Z,2.40
2022-07-27T23:43:51.408Z,2.40
2022-07-27T23:46:19.423Z,2.03
2022-07-27T23:48:47.501Z,2.50
2022-07-27T23:51:20.050Z,2.53
2022-07-27T23:53:48.152Z,2.17
2022-07-27T23:56:16.080Z,2.23
2022-07-27T23:58:45.766Z,2.40
